Time;durP1;ratioP1;P1;durP2;ratioP2;P2;SDS_P1;SDS_P2;PMS_P1;PMS_P2;Temp;Humidity;BMP_temperature;BMP_pressure;BME280_temperature;BME280_humidity;BME280_pressure;Samples;Min_cycle;Max_cycle;Signal;HPM_P1;HPM_P2
2024/02/14 00:00:16;;;;;;;11.15;7.38;;;;;;;;;;5073097;28;20020;-27
2024/02/14 00:02:44;;;;;;;10.45;7.28;;;;;;;;;;5073136;28;20020;-28
2024/02/14 00:05:10;;;;;;;9.30;6.85;;;;;;;;;;5073157;28;20055;-27
2024/02/14 00:07:35;;;;;;;10.25;7.28;;;;;;;;;;5072896;28;20076;-28
2024/02/14 00:10:00;;;;;;;14.17;7.70;;;;;;;;;;5073126;28;20112;-28
2024/02/14 00:12:25;;;;;;;9.43;7.27;;;;;;;;;;5073010;28;20251;-28
2024/02/14 00:14:50;;;;;;;10.80;7.75;;;;;;;;;;5073049;28;20255;-28
2024/02/14 00:17:16;;;;;;;11.43;7.80;;;;;;;;;;5076379;28;20422;-28
2024/02/14 00:19:41;;;;;;;9.30;7.35;;;;;;;;;;5077471;28;20247;-28
2024/02/14 00:22:06;;;;;;;8.20;7.30;;;;;;;;;;5076866;28;20021;-28
2024/02/14 00:24:32;;;;;;;11.80;8.00;;;;;;;;;;5076870;28;20304;-27
2024/02/14 00:26:57;;;;;;;13.30;7.93;;;;;;;;;;5077113;28;20254;-28
2024/02/14 00:29:23;;;;;;;12.05;8.32;;;;;;;;;;5077118;28;20085;-28
2024/02/14 00:31:48;;;;;;;11.82;8.57;;;;;;;;;;5076632;28;20021;-28
2024/02/14 00:34:14;;;;;;;13.00;9.20;;;;;;;;;;5077211;28;20032;-28
2024/02/14 00:36:39;;;;;;;11.48;8.70;;;;;;;;;;5076577;28;20254;-28
2024/02/14 00:39:04;;;;;;;12.97;8.83;;;;;;;;;;5077173;28;20017;-28
2024/02/14 00:41:29;;;;;;;12.43;9.13;;;;;;;;;;5076524;28;20281;-28
2024/02/14 00:43:55;;;;;;;10.93;8.88;;;;;;;;;;5076456;28;20024;-30
2024/02/14 00:46:20;;;;;;;13.77;9.80;;;;;;;;;;5076450;28;20025;-28
2024/02/14 00:48:45;;;;;;;13.40;9.00;;;;;;;;;;5076360;28;20353;-28
2024/02/14 00:51:11;;;;;;;12.63;9.17;;;;;;;;;;5076337;28;20346;-28
2024/02/14 00:53:36;;;;;;;11.52;9.60;;;;;;;;;;5076469;28;20734;-28
2024/02/14 00:56:02;;;;;;;14.13;9.82;;;;;;;;;;5076220;28;20466;-28
2024/02/14 00:58:27;;;;;;;14.02;9.85;;;;;;;;;;5076199;28;20504;-28
2024/02/14 01:00:52;;;;;;;12.60;9.57;;;;;;;;;;5076093;28;20048;-28
2024/02/14 01:03:18;;;;;;;14.47;9.67;;;;;;;;;;5076217;28;20254;-28
2024/02/14 01:05:43;;;;;;;13.45;9.73;;;;;;;;;;5075998;28;20255;-28
2024/02/14 01:08:08;;;;;;;13.73;9.67;;;;;;;;;;5076627;28;20023;-28
2024/02/14 01:10:33;;;;;;;15.27;10.27;;;;;;;;;;5075867;28;20792;-28
2024/02/14 01:12:58;;;;;;;17.03;9.83;;;;;;;;;;5076331;28;20266;-28
2024/02/14 01:15:23;;;;;;;14.10;10.40;;;;;;;;;;5075919;28;20286;-28
2024/02/14 01:17:49;;;;;;;14.07;9.73;;;;;;;;;;5076499;28;20258;-28
2024/02/14 01:20:15;;;;;;;13.47;10.07;;;;;;;;;;5076342;28;20255;-28
2024/02/14 01:22:40;;;;;;;15.05;10.38;;;;;;;;;;5075728;28;20259;-29
2024/02/14 01:25:06;;;;;;;13.23;9.88;;;;;;;;;;5076101;28;20027;-28
2024/02/14 01:27:31;;;;;;;12.93;9.35;;;;;;;;;;5075570;28;20020;-28
2024/02/14 01:29:57;;;;;;;11.37;9.70;;;;;;;;;;5076211;28;20048;-28
2024/02/14 01:32:22;;;;;;;14.02;10.45;;;;;;;;;;5075863;28;20647;-28
2024/02/14 01:34:47;;;;;;;14.80;9.68;;;;;;;;;;5075786;28;20051;-28
2024/02/14 01:37:12;;;;;;;14.37;10.30;;;;;;;;;;5075807;28;20051;-28
2024/02/14 01:39:38;;;;;;;13.03;9.50;;;;;;;;;;5075541;28;20641;-28
2024/02/14 01:42:06;;;;;;;13.60;10.03;;;;;;;;;;5075968;28;20282;-28
2024/02/14 01:44:32;;;;;;;17.20;9.82;;;;;;;;;;5075334;28;20263;-28
2024/02/14 01:46:58;;;;;;;13.90;10.20;;;;;;;;;;5075355;28;20016;-28
2024/02/14 01:49:23;;;;;;;14.23;9.95;;;;;;;;;;5075184;28;20134;-28
2024/02/14 01:51:48;;;;;;;15.88;10.10;;;;;;;;;;5075285;28;20107;-28
2024/02/14 01:54:14;;;;;;;14.65;9.90;;;;;;;;;;5075234;28;20020;-28
2024/02/14 01:56:40;;;;;;;16.05;10.65;;;;;;;;;;5075235;28;20020;-28
2024/02/14 01:59:05;;;;;;;15.18;10.55;;;;;;;;;;5075401;28;20096;-28
2024/02/14 02:01:31;;;;;;;19.10;10.55;;;;;;;;;;5075023;28;20024;-28
2024/02/14 02:03:56;;;;;;;17.42;10.70;;;;;;;;;;5075008;28;20013;-28
2024/02/14 02:06:21;;;;;;;15.63;11.23;;;;;;;;;;5074768;28;20044;-28
2024/02/14 02:08:47;;;;;;;17.52;10.48;;;;;;;;;;5074955;28;20021;-28
2024/02/14 02:11:13;;;;;;;18.27;10.90;;;;;;;;;;5075038;28;20027;-28
2024/02/14 02:13:39;;;;;;;15.02;10.25;;;;;;;;;;5074808;28;20095;-28
2024/02/14 02:16:05;;;;;;;15.75;10.80;;;;;;;;;;5074977;28;20042;-28
2024/02/14 02:18:31;;;;;;;16.65;10.27;;;;;;;;;;5073560;28;20021;-28
2024/02/14 02:20:57;;;;;;;14.10;9.80;;;;;;;;;;5075138;28;20501;-28
2024/02/14 02:23:22;;;;;;;14.35;10.38;;;;;;;;;;5074899;28;20433;-29
2024/02/14 02:25:47;;;;;;;14.73;9.65;;;;;;;;;;5074616;28;20039;-28
2024/02/14 02:28:13;;;;;;;14.27;10.45;;;;;;;;;;5074793;28;20012;-28
2024/02/14 02:30:38;;;;;;;13.50;9.65;;;;;;;;;;5074484;28;20028;-28
2024/02/14 02:33:04;;;;;;;14.93;10.10;;;;;;;;;;5074633;28;20025;-28
2024/02/14 02:35:29;;;;;;;15.90;9.52;;;;;;;;;;5074631;28;20027;-28
2024/02/14 02:37:54;;;;;;;13.32;9.60;;;;;;;;;;5074107;28;20021;-28
2024/02/14 02:40:21;;;;;;;13.30;9.70;;;;;;;;;;5074105;28;20103;-28
2024/02/14 02:42:46;;;;;;;11.48;8.85;;;;;;;;;;5074506;28;20528;-28
2024/02/14 02:45:11;;;;;;;13.75;8.63;;;;;;;;;;5074198;28;20095;-28
2024/02/14 02:47:37;;;;;;;13.00;8.75;;;;;;;;;;5074195;28;20023;-29
2024/02/14 02:50:02;;;;;;;10.77;8.93;;;;;;;;;;5074113;28;20051;-28
2024/02/14 02:52:27;;;;;;;13.20;9.50;;;;;;;;;;5074334;28;20339;-28
2024/02/14 02:54:53;;;;;;;11.82;8.57;;;;;;;;;;5074321;28;20027;-28
2024/02/14 02:57:18;;;;;;;10.20;8.07;;;;;;;;;;5074595;28;20021;-28
2024/02/14 02:59:44;;;;;;;12.55;8.20;;;;;;;;;;5074072;28;20460;-28
2024/02/14 03:02:11;;;;;;;9.27;7.38;;;;;;;;;;5073748;28;20024;-28
2024/02/14 03:04:37;;;;;;;11.27;8.20;;;;;;;;;;5074166;28;20013;-28
2024/02/14 03:07:06;;;;;;;10.60;8.05;;;;;;;;;;5073392;28;20178;-28
2024/02/14 03:09:31;;;;;;;10.10;7.75;;;;;;;;;;5073057;28;20030;-28
2024/02/14 03:11:56;;;;;;;9.13;6.97;;;;;;;;;;5073221;28;20020;-32
2024/02/14 03:14:22;;;;;;;8.67;6.77;;;;;;;;;;5073301;28;20095;-28
2024/02/14 03:16:47;;;;;;;10.05;7.07;;;;;;;;;;5072955;28;20253;-28
2024/02/14 03:19:12;;;;;;;9.38;7.18;;;;;;;;;;5073225;28;20016;-28
2024/02/14 03:21:37;;;;;;;10.73;7.90;;;;;;;;;;5072765;28;20020;-28
2024/02/14 03:24:04;;;;;;;9.77;7.60;;;;;;;;;;5073420;28;20283;-28
2024/02/14 03:26:32;;;;;;;10.35;8.00;;;;;;;;;;5073117;28;20325;-28
2024/02/14 03:28:57;;;;;;;11.75;8.07;;;;;;;;;;5071532;28;20511;-28
2024/02/14 03:31:23;;;;;;;11.77;8.60;;;;;;;;;;5072767;28;20132;-28
2024/02/14 03:33:48;;;;;;;12.90;8.67;;;;;;;;;;5073020;28;20654;-28
2024/02/14 03:36:13;;;;;;;13.23;9.43;;;;;;;;;;5073271;28;20326;-28
2024/02/14 03:38:40;;;;;;;11.43;9.23;;;;;;;;;;5072916;28;20332;-29
2024/02/14 03:41:05;;;;;;;16.95;10.23;;;;;;;;;;5072488;28;20293;-28
2024/02/14 03:43:32;;;;;;;18.77;10.48;;;;;;;;;;5072535;28;20054;-28
2024/02/14 03:45:57;;;;;;;15.10;10.32;;;;;;;;;;5072879;28;20095;-28
2024/02/14 03:48:22;;;;;;;15.32;10.55;;;;;;;;;;5072778;28;20495;-29
2024/02/14 03:50:48;;;;;;;18.45;11.30;;;;;;;;;;5071562;28;20468;-28
2024/02/14 03:53:14;;;;;;;17.05;10.98;;;;;;;;;;5072705;28;20021;-28
2024/02/14 03:55:40;;;;;;;17.25;10.32;;;;;;;;;;5072413;28;20024;-28
2024/02/14 03:58:06;;;;;;;17.05;11.30;;;;;;;;;;5072338;28;20020;-28
2024/02/14 04:00:31;;;;;;;23.73;11.32;;;;;;;;;;5072562;28;20044;-28
2024/02/14 04:02:59;;;;;;;19.83;11.30;;;;;;;;;;5072399;28;20013;-29
2024/02/14 04:05:27;;;;;;;23.42;12.32;;;;;;;;;;5060389;28;1040193;-33
2024/02/14 04:07:54;;;;;;;20.02;11.07;;;;;;;;;;5073412;28;20082;-28
2024/02/14 04:10:19;;;;;;;21.35;12.57;;;;;;;;;;5073425;28;20510;-29
2024/02/14 04:12:44;;;;;;;19.77;12.52;;;;;;;;;;5073016;28;20025;-28
2024/02/14 04:15:09;;;;;;;26.47;12.17;;;;;;;;;;5073124;28;20464;-28
2024/02/14 04:17:35;;;;;;;24.67;12.23;;;;;;;;;;5073338;28;20312;-28
2024/02/14 04:20:00;;;;;;;26.90;12.13;;;;;;;;;;5073585;28;20096;-28
2024/02/14 04:22:25;;;;;;;26.07;12.23;;;;;;;;;;5073257;28;20727;-28
2024/02/14 04:24:50;;;;;;;26.73;13.05;;;;;;;;;;5071730;28;20262;-28
2024/02/14 04:27:15;;;;;;;27.57;13.00;;;;;;;;;;5073457;28;20032;-28
2024/02/14 04:29:40;;;;;;;24.63;12.65;;;;;;;;;;5073233;28;20259;-29
2024/02/14 04:32:06;;;;;;;27.63;13.00;;;;;;;;;;5072950;28;20115;-28
2024/02/14 04:34:31;;;;;;;21.40;12.43;;;;;;;;;;5073179;28;20290;-28
2024/02/14 04:36:56;;;;;;;32.38;13.45;;;;;;;;;;5072795;28;20262;-29
2024/02/14 04:39:22;;;;;;;22.98;12.30;;;;;;;;;;5073106;28;20016;-28
2024/02/14 04:41:47;;;;;;;26.53;12.77;;;;;;;;;;5072647;28;20016;-28
2024/02/14 04:44:12;;;;;;;27.95;12.55;;;;;;;;;;5073329;28;20247;-28
2024/02/14 04:46:38;;;;;;;25.90;12.43;;;;;;;;;;5072804;28;20016;-29
2024/02/14 04:49:03;;;;;;;25.02;12.55;;;;;;;;;;5072671;28;20795;-28
2024/02/14 04:51:29;;;;;;;24.70;12.52;;;;;;;;;;5073082;28;20025;-28
2024/02/14 04:53:58;;;;;;;25.92;13.23;;;;;;;;;;5072980;28;20375;-28
2024/02/14 04:56:23;;;;;;;27.00;13.57;;;;;;;;;;5072743;28;20066;-29
2024/02/14 04:58:48;;;;;;;29.37;14.17;;;;;;;;;;5072752;28;20032;-28
2024/02/14 05:01:15;;;;;;;21.27;12.73;;;;;;;;;;5072617;28;20776;-28
2024/02/14 05:03:40;;;;;;;27.13;12.98;;;;;;;;;;5076218;28;20317;-29
2024/02/14 05:06:06;;;;;;;24.52;12.73;;;;;;;;;;5074671;28;20044;-28
2024/02/14 05:08:31;;;;;;;27.42;13.15;;;;;;;;;;5076683;28;20456;-28
2024/02/14 05:10:57;;;;;;;26.85;13.15;;;;;;;;;;5076310;28;20036;-28
2024/02/14 05:13:22;;;;;;;25.60;13.23;;;;;;;;;;5076066;28;20090;-28
2024/02/14 05:15:47;;;;;;;27.52;14.73;;;;;;;;;;5076083;28;20016;-28
2024/02/14 05:18:12;;;;;;;26.40;13.45;;;;;;;;;;5076150;28;20455;-28
2024/02/14 05:20:38;;;;;;;26.60;13.63;;;;;;;;;;5074869;28;20388;-28
2024/02/14 05:23:03;;;;;;;33.25;13.90;;;;;;;;;;5075053;28;20328;-28
2024/02/14 05:25:29;;;;;;;26.60;14.45;;;;;;;;;;5074804;28;20471;-28
2024/02/14 05:27:55;;;;;;;30.55;14.52;;;;;;;;;;5075068;28;20012;-28
2024/02/14 05:30:20;;;;;;;25.92;13.98;;;;;;;;;;5074985;28;20521;-28
2024/02/14 05:32:45;;;;;;;28.30;14.50;;;;;;;;;;5074658;28;20097;-28
2024/02/14 05:35:10;;;;;;;32.93;14.90;;;;;;;;;;5075533;28;20071;-28
2024/02/14 05:37:36;;;;;;;29.42;15.45;;;;;;;;;;5076186;28;20247;-28
2024/02/14 05:40:02;;;;;;;26.23;15.50;;;;;;;;;;5076077;28;20016;-29
2024/02/14 05:42:27;;;;;;;34.13;14.95;;;;;;;;;;5075418;28;20487;-28
2024/02/14 05:44:52;;;;;;;31.07;15.47;;;;;;;;;;5075372;28;20021;-28
2024/02/14 05:47:18;;;;;;;35.67;15.73;;;;;;;;;;5075724;28;20246;-28
2024/02/14 05:49:44;;;;;;;33.65;16.58;;;;;;;;;;5075587;28;20255;-27
2024/02/14 05:52:09;;;;;;;35.80;15.25;;;;;;;;;;5075852;28;20094;-29
2024/02/14 05:54:34;;;;;;;26.70;15.37;;;;;;;;;;5075281;28;20023;-27
2024/02/14 05:56:59;;;;;;;24.98;15.50;;;;;;;;;;5075258;28;20265;-29
2024/02/14 05:59:24;;;;;;;33.08;14.52;;;;;;;;;;5075423;28;20020;-28
2024/02/14 06:01:50;;;;;;;24.02;14.48;;;;;;;;;;5075117;28;20107;-28
2024/02/14 06:04:15;;;;;;;24.95;14.20;;;;;;;;;;5075148;28;20017;-28
2024/02/14 06:06:40;;;;;;;23.75;14.05;;;;;;;;;;5075589;28;20044;-28
2024/02/14 06:09:09;;;;;;;25.63;13.15;;;;;;;;;;5073743;28;20016;-28
2024/02/14 06:11:35;;;;;;;21.92;13.20;;;;;;;;;;5075158;28;20107;-27
2024/02/14 06:14:00;;;;;;;22.75;14.18;;;;;;;;;;5073904;28;20500;-28
2024/02/14 06:16:25;;;;;;;23.60;14.20;;;;;;;;;;5074872;28;20375;-28
2024/02/14 06:18:51;;;;;;;22.63;13.82;;;;;;;;;;5074784;28;20456;-29
2024/02/14 06:21:16;;;;;;;20.83;14.00;;;;;;;;;;5074696;28;20113;-28
2024/02/14 06:23:41;;;;;;;26.67;15.17;;;;;;;;;;5074684;28;20416;-28
2024/02/14 06:26:06;;;;;;;28.13;15.20;;;;;;;;;;5074832;28;20255;-28
2024/02/14 06:28:32;;;;;;;27.40;15.35;;;;;;;;;;5074652;28;20027;-28
2024/02/14 06:30:57;;;;;;;29.87;15.77;;;;;;;;;;5074814;28;20044;-28
2024/02/14 06:33:22;;;;;;;24.40;14.97;;;;;;;;;;5074479;28;20630;-28
2024/02/14 06:35:48;;;;;;;25.15;16.05;;;;;;;;;;5074666;28;20254;-28
2024/02/14 06:38:13;;;;;;;25.00;15.48;;;;;;;;;;5075140;28;20024;-27
2024/02/14 06:40:38;;;;;;;27.00;15.80;;;;;;;;;;5074574;28;20409;-28
2024/02/14 06:43:06;;;;;;;24.75;14.73;;;;;;;;;;5074620;28;20282;-28
2024/02/14 06:45:32;;;;;;;26.63;14.60;;;;;;;;;;5074586;28;20111;-28
2024/02/14 06:47:57;;;;;;;22.45;13.50;;;;;;;;;;5074194;28;20012;-29
2024/02/14 06:50:25;;;;;;;24.85;14.25;;;;;;;;;;5074435;28;20505;-29
2024/02/14 06:52:51;;;;;;;26.75;14.93;;;;;;;;;;5074081;28;20024;-29
2024/02/14 06:55:16;;;;;;;29.27;15.77;;;;;;;;;;5074357;28;20136;-29
2024/02/14 06:57:41;;;;;;;29.65;16.10;;;;;;;;;;5074361;28;20469;-29
2024/02/14 07:00:08;;;;;;;29.42;15.52;;;;;;;;;;5074019;28;20024;-29
2024/02/14 07:02:33;;;;;;;31.85;16.95;;;;;;;;;;5074191;28;20016;-29
2024/02/14 07:04:59;;;;;;;35.00;16.40;;;;;;;;;;5074445;28;20027;-29
2024/02/14 07:07:24;;;;;;;34.85;17.13;;;;;;;;;;5073992;28;20298;-32
2024/02/14 07:09:49;;;;;;;31.98;17.30;;;;;;;;;;5073747;28;20028;-29
2024/02/14 07:12:16;;;;;;;29.87;16.27;;;;;;;;;;5073912;28;20024;-33
2024/02/14 07:14:41;;;;;;;40.30;16.90;;;;;;;;;;5074127;28;20316;-33
2024/02/14 07:17:06;;;;;;;30.73;17.65;;;;;;;;;;5073974;28;20375;-33
2024/02/14 07:19:32;;;;;;;32.40;17.52;;;;;;;;;;5074350;28;20027;-35
2024/02/14 07:21:57;;;;;;;33.23;19.13;;;;;;;;;;5073660;28;20043;-33
2024/02/14 07:24:22;;;;;;;40.00;19.30;;;;;;;;;;5073810;28;20286;-35
2024/02/14 07:26:47;;;;;;;47.10;20.25;;;;;;;;;;5073663;28;20086;-33
2024/02/14 07:29:13;;;;;;;46.78;20.20;;;;;;;;;;5073606;28;20463;-33
2024/02/14 07:31:38;;;;;;;40.78;20.30;;;;;;;;;;5073593;28;20017;-33
2024/02/14 07:34:03;;;;;;;37.73;20.43;;;;;;;;;;5074144;28;20052;-35
2024/02/14 07:36:32;;;;;;;34.30;19.10;;;;;;;;;;5073553;28;20243;-33
2024/02/14 07:38:57;;;;;;;38.75;19.15;;;;;;;;;;5073568;28;20266;-33
2024/02/14 07:41:22;;;;;;;35.88;19.10;;;;;;;;;;5073342;28;20017;-33
2024/02/14 07:43:47;;;;;;;35.60;20.27;;;;;;;;;;5073691;28;20020;-33
2024/02/14 07:46:17;;;;;;;36.23;19.70;;;;;;;;;;5073451;28;20008;-33
2024/02/14 07:48:42;;;;;;;37.60;18.35;;;;;;;;;;5073634;28;20266;-32
2024/02/14 07:51:08;;;;;;;31.37;19.30;;;;;;;;;;5073700;28;20021;-33
2024/02/14 07:53:33;;;;;;;37.88;19.17;;;;;;;;;;5073543;28;20308;-33
2024/02/14 07:55:58;;;;;;;37.08;19.25;;;;;;;;;;5073360;28;20499;-33
2024/02/14 07:58:23;;;;;;;36.63;18.58;;;;;;;;;;5073293;28;20023;-34
2024/02/14 08:00:48;;;;;;;35.83;19.23;;;;;;;;;;5072959;28;20421;-33
2024/02/14 08:03:14;;;;;;;42.20;18.33;;;;;;;;;;5072834;28;20274;-33
2024/02/14 08:05:41;;;;;;;33.20;17.65;;;;;;;;;;5072612;28;20255;-32
2024/02/14 08:08:06;;;;;;;33.97;17.27;;;;;;;;;;5073061;28;20013;-33
2024/02/14 08:10:32;;;;;;;30.23;17.20;;;;;;;;;;5072992;28;20020;-33
2024/02/14 08:12:57;;;;;;;29.75;15.88;;;;;;;;;;5072649;28;20353;-33
2024/02/14 08:15:22;;;;;;;28.07;14.77;;;;;;;;;;5072915;28;20020;-33
2024/02/14 08:17:48;;;;;;;26.30;14.57;;;;;;;;;;5073206;28;20739;-34
2024/02/14 08:20:13;;;;;;;29.75;15.75;;;;;;;;;;5073147;28;20259;-33
2024/02/14 08:22:39;;;;;;;26.05;14.43;;;;;;;;;;5073315;28;20023;-33
2024/02/14 08:25:04;;;;;;;25.58;14.32;;;;;;;;;;5073315;28;20027;-33
2024/02/14 08:27:31;;;;;;;22.67;13.63;;;;;;;;;;5073284;28;20008;-34
2024/02/14 08:29:56;;;;;;;24.13;13.93;;;;;;;;;;5073236;28;20056;-34
2024/02/14 08:32:21;;;;;;;22.98;13.85;;;;;;;;;;5072982;28;20055;-34
2024/02/14 08:34:47;;;;;;;24.17;13.33;;;;;;;;;;5072984;28;20021;-33
2024/02/14 08:37:13;;;;;;;24.17;14.23;;;;;;;;;;5074624;28;20730;-34
2024/02/14 08:39:38;;;;;;;24.92;14.15;;;;;;;;;;5076746;28;20025;-33
2024/02/14 08:42:07;;;;;;;25.65;13.50;;;;;;;;;;5076567;28;20107;-34
2024/02/14 08:44:33;;;;;;;22.17;14.18;;;;;;;;;;5077201;28;20008;-33
2024/02/14 08:46:58;;;;;;;22.40;14.15;;;;;;;;;;5076853;28;20016;-33
2024/02/14 08:49:23;;;;;;;22.30;13.25;;;;;;;;;;5076564;28;20486;-34
2024/02/14 08:51:49;;;;;;;21.10;13.70;;;;;;;;;;5076533;28;20024;-34
2024/02/14 08:54:15;;;;;;;22.15;13.32;;;;;;;;;;5075218;28;20371;-34
2024/02/14 08:56:41;;;;;;;21.25;12.80;;;;;;;;;;5076301;28;20026;-34
2024/02/14 08:59:06;;;;;;;17.80;12.10;;;;;;;;;;5076632;28;20029;-33
2024/02/14 09:01:32;;;;;;;15.63;10.90;;;;;;;;;;5076609;28;20052;-34
2024/02/14 09:03:58;;;;;;;16.50;10.35;;;;;;;;;;5076292;28;20015;-34
2024/02/14 09:06:24;;;;;;;14.05;9.90;;;;;;;;;;5076101;28;20047;-32
2024/02/14 09:08:52;;;;;;;14.27;9.50;;;;;;;;;;5076455;28;20095;-33
2024/02/14 09:11:17;;;;;;;12.00;8.82;;;;;;;;;;5076085;28;20027;-33
2024/02/14 09:13:42;;;;;;;13.68;8.80;;;;;;;;;;5076478;28;20095;-34
2024/02/14 09:16:08;;;;;;;10.87;7.50;;;;;;;;;;5076098;28;20024;-33
2024/02/14 09:18:33;;;;;;;14.45;7.85;;;;;;;;;;5076046;28;20274;-33
2024/02/14 09:20:58;;;;;;;10.27;7.18;;;;;;;;;;5076110;28;20364;-34
2024/02/14 09:23:23;;;;;;;10.47;7.63;;;;;;;;;;5076176;28;20026;-33
2024/02/14 09:25:49;;;;;;;11.30;7.07;;;;;;;;;;5076189;28;20255;-33
2024/02/14 09:28:17;;;;;;;12.40;6.80;;;;;;;;;;5075822;28;20036;-33
2024/02/14 09:30:42;;;;;;;11.82;6.80;;;;;;;;;;5075712;28;20051;-33
2024/02/14 09:33:07;;;;;;;10.63;6.40;;;;;;;;;;5075804;28;20012;-33
2024/02/14 09:35:33;;;;;;;10.07;6.63;;;;;;;;;;5075976;28;20255;-33
2024/02/14 09:37:59;;;;;;;11.80;6.67;;;;;;;;;;5075868;28;20017;-33
2024/02/14 09:40:25;;;;;;;9.00;5.75;;;;;;;;;;5075843;28;20254;-33
2024/02/14 09:42:55;;;;;;;10.60;6.50;;;;;;;;;;5075791;28;20396;-33
2024/02/14 09:45:20;;;;;;;8.40;6.18;;;;;;;;;;5075816;28;20028;-32
2024/02/14 09:47:45;;;;;;;8.83;6.00;;;;;;;;;;5074166;28;20442;-32
2024/02/14 09:50:11;;;;;;;9.05;6.63;;;;;;;;;;5075302;28;20326;-32
2024/02/14 09:52:38;;;;;;;9.63;7.00;;;;;;;;;;5075318;28;20467;-31
2024/02/14 09:55:04;;;;;;;9.90;6.65;;;;;;;;;;5075342;28;20023;-33
2024/02/14 09:57:30;;;;;;;12.65;7.63;;;;;;;;;;5075252;28;20033;-33
2024/02/14 09:59:56;;;;;;;11.40;8.20;;;;;;;;;;5075806;28;20130;-36
2024/02/14 10:02:21;;;;;;;16.58;9.18;;;;;;;;;;5075053;28;20078;-33
2024/02/14 10:04:47;;;;;;;11.77;8.35;;;;;;;;;;5075386;28;20009;-33
2024/02/14 10:07:12;;;;;;;14.30;8.07;;;;;;;;;;5074999;28;20040;-34
2024/02/14 10:09:41;;;;;;;11.60;8.20;;;;;;;;;;5075350;28;20020;-34
2024/02/14 10:12:08;;;;;;;15.32;8.85;;;;;;;;;;5074761;28;20035;-34
2024/02/14 10:14:34;;;;;;;15.10;8.90;;;;;;;;;;5075174;28;20483;-34
2024/02/14 10:16:59;;;;;;;18.20;9.03;;;;;;;;;;5074859;28;20039;-32
2024/02/14 10:19:24;;;;;;;13.82;8.77;;;;;;;;;;5074767;28;20271;-33
2024/02/14 10:21:59;;;;;;;16.88;8.80;;;;;;;;;;5075145;28;20025;-33
2024/02/14 10:24:25;;;;;;;12.27;7.70;;;;;;;;;;5074960;28;20070;-32
2024/02/14 10:26:51;;;;;;;11.90;7.47;;;;;;;;;;5074895;28;20021;-32
2024/02/14 10:29:16;;;;;;;11.05;7.53;;;;;;;;;;5074535;28;20016;-32
2024/02/14 10:31:42;;;;;;;10.45;6.38;;;;;;;;;;5074401;28;20043;-32
2024/02/14 10:34:07;;;;;;;13.55;6.97;;;;;;;;;;5074312;28;20032;-32
2024/02/14 10:36:34;;;;;;;12.93;6.97;;;;;;;;;;5074721;28;20065;-32
2024/02/14 10:39:00;;;;;;;12.55;6.70;;;;;;;;;;5074339;28;20063;-33
2024/02/14 10:41:26;;;;;;;14.52;6.47;;;;;;;;;;5074279;28;20024;-32
2024/02/14 10:43:51;;;;;;;11.40;6.00;;;;;;;;;;5074576;28;20012;-33
2024/02/14 10:46:25;;;;;;;11.20;6.33;;;;;;;;;;5074293;28;20471;-33
2024/02/14 10:48:55;;;;;;;10.55;6.10;;;;;;;;;;5074428;28;20595;-33
2024/02/14 10:51:21;;;;;;;9.13;5.97;;;;;;;;;;5074451;28;20029;-33
2024/02/14 10:53:46;;;;;;;9.00;6.22;;;;;;;;;;5074229;28;20099;-34
2024/02/14 10:56:18;;;;;;;9.40;6.82;;;;;;;;;;5074389;28;20097;-34
2024/02/14 10:58:45;;;;;;;9.85;6.30;;;;;;;;;;5074278;28;20029;-35
2024/02/14 11:01:11;;;;;;;11.20;6.32;;;;;;;;;;5073868;28;20028;-34
2024/02/14 11:03:36;;;;;;;9.57;6.38;;;;;;;;;;5073918;28;20013;-33
2024/02/14 11:06:03;;;;;;;9.73;6.40;;;;;;;;;;5074103;28;20052;-33
2024/02/14 11:08:30;;;;;;;8.43;6.18;;;;;;;;;;5073738;28;20074;-34
2024/02/14 11:10:56;;;;;;;12.75;6.18;;;;;;;;;;5074004;28;20025;-33
2024/02/14 11:13:25;;;;;;;9.43;5.93;;;;;;;;;;5073392;28;20044;-33
2024/02/14 11:15:51;;;;;;;6.70;5.40;;;;;;;;;;5073270;28;20449;-33
2024/02/14 11:18:24;;;;;;;10.27;5.82;;;;;;;;;;5073051;28;20017;-34
2024/02/14 11:20:49;;;;;;;;;;;;;;;;;;5073743;28;20025;-33
2024/02/14 11:23:21;;;;;;;9.82;5.93;;;;;;;;;;5073582;28;20547;-33
2024/02/14 11:25:47;;;;;;;10.73;5.80;;;;;;;;;;5073314;28;20391;-33
2024/02/14 11:28:13;;;;;;;12.38;7.45;;;;;;;;;;5073404;28;20013;-33
2024/02/14 11:30:39;;;;;;;8.45;6.15;;;;;;;;;;5073410;28;20137;-33
2024/02/14 11:33:13;;;;;;;10.02;5.95;;;;;;;;;;5073517;28;20016;-33
2024/02/14 11:35:40;;;;;;;8.80;6.28;;;;;;;;;;5073450;28;20025;-33
2024/02/14 11:38:05;;;;;;;7.45;6.13;;;;;;;;;;5073391;28;20097;-34
2024/02/14 11:40:30;;;;;;;8.23;6.05;;;;;;;;;;5073277;28;20025;-33
2024/02/14 11:42:55;;;;;;;8.48;6.40;;;;;;;;;;5073399;28;20024;-33
2024/02/14 11:45:20;;;;;;;8.82;6.13;;;;;;;;;;5073801;28;20066;-33
2024/02/14 11:47:46;;;;;;;7.87;6.23;;;;;;;;;;5073427;28;20422;-34
2024/02/14 11:50:11;;;;;;;8.95;6.15;;;;;;;;;;5073349;28;20031;-34
2024/02/14 11:52:37;;;;;;;8.43;6.25;;;;;;;;;;5073279;28;20386;-34
2024/02/14 11:55:02;;;;;;;9.35;6.43;;;;;;;;;;5073530;28;20016;-34
2024/02/14 11:57:27;;;;;;;8.43;6.43;;;;;;;;;;5073570;28;20051;-34
2024/02/14 11:59:53;;;;;;;8.43;6.33;;;;;;;;;;5073270;28;20468;-34
2024/02/14 12:02:19;;;;;;;9.65;6.13;;;;;;;;;;5073528;28;20482;-34
2024/02/14 12:04:45;;;;;;;11.77;6.65;;;;;;;;;;5073795;28;20013;-34
2024/02/14 12:07:10;;;;;;;12.05;6.55;;;;;;;;;;5073159;28;20063;-34
2024/02/14 12:09:35;;;;;;;8.70;6.57;;;;;;;;;;5073485;28;20034;-34
2024/02/14 12:12:00;;;;;;;10.85;6.72;;;;;;;;;;5074384;28;20031;-33
2024/02/14 12:14:28;;;;;;;11.48;7.22;;;;;;;;;;5077807;28;20025;-34
2024/02/14 12:16:56;;;;;;;12.60;7.07;;;;;;;;;;5077538;28;20384;-33
2024/02/14 12:19:21;;;;;;;10.30;6.88;;;;;;;;;;5077619;28;20024;-34
2024/02/14 12:21:48;;;;;;;9.07;6.82;;;;;;;;;;5077568;28;20047;-34
2024/02/14 12:24:14;;;;;;;12.25;6.60;;;;;;;;;;5077623;28;20048;-33
2024/02/14 12:26:40;;;;;;;11.23;6.95;;;;;;;;;;5077302;28;20016;-33
2024/02/14 12:29:09;;;;;;;12.77;6.82;;;;;;;;;;5076952;28;20108;-34
2024/02/14 12:31:34;;;;;;;9.80;6.43;;;;;;;;;;5077107;28;20032;-33
2024/02/14 12:34:01;;;;;;;10.95;6.50;;;;;;;;;;5077178;28;20078;-33
2024/02/14 12:36:27;;;;;;;10.50;6.25;;;;;;;;;;5077104;28;20052;-33
2024/02/14 12:38:53;;;;;;;9.20;6.32;;;;;;;;;;5077370;28;20074;-34
2024/02/14 12:41:19;;;;;;;8.30;6.20;;;;;;;;;;5076548;28;20032;-34
2024/02/14 12:43:44;;;;;;;8.55;6.10;;;;;;;;;;5076893;28;20027;-33
2024/02/14 12:46:09;;;;;;;6.10;4.85;;;;;;;;;;5075569;28;20027;-34
2024/02/14 12:48:34;;;;;;;6.65;5.10;;;;;;;;;;5074472;28;20657;-33
2024/02/14 12:50:59;;;;;;;7.20;4.70;;;;;;;;;;5074431;28;20490;-33
2024/02/14 12:53:25;;;;;;;7.05;4.60;;;;;;;;;;5074235;28;20267;-33
2024/02/14 12:55:50;;;;;;;7.40;4.73;;;;;;;;;;5074580;28;20025;-34
2024/02/14 12:58:16;;;;;;;6.53;4.45;;;;;;;;;;5074465;28;20254;-33
2024/02/14 13:00:42;;;;;;;6.82;4.47;;;;;;;;;;5074363;28;20025;-34
2024/02/14 13:03:08;;;;;;;6.63;4.25;;;;;;;;;;5076202;28;20020;-33
2024/02/14 13:05:34;;;;;;;4.90;4.28;;;;;;;;;;5076491;28;20013;-33
2024/02/14 13:08:00;;;;;;;5.13;4.15;;;;;;;;;;5076390;28;20013;-34
2024/02/14 13:10:25;;;;;;;8.82;4.15;;;;;;;;;;5076361;28;20379;-33
2024/02/14 13:12:51;;;;;;;5.13;4.07;;;;;;;;;;5076588;28;20025;-34
2024/02/14 13:15:16;;;;;;;5.32;4.38;;;;;;;;;;5076068;28;20305;-33
2024/02/14 13:17:41;;;;;;;6.25;4.70;;;;;;;;;;5076224;28;20023;-34
2024/02/14 13:20:07;;;;;;;5.80;4.50;;;;;;;;;;5076022;28;20461;-33
2024/02/14 13:22:32;;;;;;;6.75;4.60;;;;;;;;;;5075481;28;20027;-33
2024/02/14 13:25:00;;;;;;;6.55;5.00;;;;;;;;;;5075831;28;20031;-34
2024/02/14 13:27:25;;;;;;;6.30;4.60;;;;;;;;;;5076094;28;20030;-33
2024/02/14 13:29:50;;;;;;;5.53;4.90;;;;;;;;;;5075760;28;20083;-33
2024/02/14 13:32:16;;;;;;;6.68;5.00;;;;;;;;;;5075999;28;20460;-33
2024/02/14 13:34:41;;;;;;;7.65;4.70;;;;;;;;;;5075741;28;20057;-33
2024/02/14 13:37:06;;;;;;;6.37;4.90;;;;;;;;;;5076566;28;20074;-34
2024/02/14 13:39:31;;;;;;;5.97;4.70;;;;;;;;;;5075780;28;20255;-33
2024/02/14 13:41:59;;;;;;;5.93;4.63;;;;;;;;;;5076074;28;20104;-34
2024/02/14 13:44:24;;;;;;;6.03;4.88;;;;;;;;;;5075796;28;20269;-34
2024/02/14 13:46:53;;;;;;;6.70;4.83;;;;;;;;;;5076057;28;20024;-33
2024/02/14 13:49:21;;;;;;;6.25;4.65;;;;;;;;;;5075420;28;20369;-33
2024/02/14 13:51:51;;;;;;;5.72;4.68;;;;;;;;;;5075334;28;20067;-33
2024/02/14 13:54:16;;;;;;;8.93;4.82;;;;;;;;;;5075310;28;20028;-34
2024/02/14 13:56:41;;;;;;;6.45;4.90;;;;;;;;;;5075317;28;20024;-33
2024/02/14 13:59:06;;;;;;;5.67;4.80;;;;;;;;;;5075247;28;20024;-34
2024/02/14 14:01:32;;;;;;;6.23;4.80;;;;;;;;;;5074769;28;20301;-34
2024/02/14 14:03:58;;;;;;;5.70;4.45;;;;;;;;;;5075220;28;20334;-34
2024/02/14 14:06:26;;;;;;;6.40;4.60;;;;;;;;;;5074801;28;20117;-33
2024/02/14 14:08:51;;;;;;;6.30;4.25;;;;;;;;;;5075274;28;20019;-33
2024/02/14 14:11:17;;;;;;;5.90;4.17;;;;;;;;;;5075357;28;20021;-33
2024/02/14 14:13:42;;;;;;;5.25;4.30;;;;;;;;;;5075496;28;20263;-34
2024/02/14 14:16:08;;;;;;;5.13;4.25;;;;;;;;;;5074823;28;20435;-34
2024/02/14 14:18:33;;;;;;;6.50;4.65;;;;;;;;;;5075047;28;20033;-34